Latest Weather Observations for Amberley

IDQ60901

Issued at 4:21 pm EST Sunday 23 September 2018 (issued every 10 minutes, with the page automatically refreshed every 10 minutes)

About weather observations | Map of Brisbane area stations | Latest observations for Brisbane area | Other Formats
Station Details ID: 040004 Name: AMBERLEY AMO Lat: -27.63 Lon: 152.71 Height: 24.2 m
Data from the previous 72 hours. | See also: Recent months at Amberley
Date/Time
EST
Temp
°C
App
Temp
°C
Dew
Point
°C
Rel
Hum
%
Delta-T
°C
Wind Press
QNH
hPa
Press
MSL
hPa
Rain since
9am
mm
Dir  Spd
km/h
Gust
km/h
Spd
kts
Gust
kts
23/04:00pm 26.4 21.8 10.9 38 8.7 NE 26 35 14 19 1018.0 1018.0 0.0
23/03:30pm 28.8 25.6 6.8 25 11.7 S 13 26 7 14 1017.8 1017.8 0.0
23/03:00pm 28.7 26.7 7.3 26 11.5 S 7 17 4 9 1018.2 1018.2 0.0
23/02:30pm 28.3 25.5 7.0 26 11.4 SE 11 19 6 10 1018.7 1018.7 0.0
23/02:00pm 27.9 24.8 7.2 27 11.0 NNW 13 20 7 11 1019.1 1019.1 0.0
23/01:30pm 28.4 25.1 8.1 28 11.0 E 15 26 8 14 1019.6 1019.6 0.0
23/01:00pm 27.1 24.7 7.0 28 10.6 NNE 9 13 5 7 1020.0 1020.0 0.0
23/12:30pm 26.2 23.6 7.7 31 9.9 ENE 11 17 6 9 1020.8 1020.8 0.0
23/12:00pm 25.5 23.2 8.9 35 9.0 NNW 11 15 6 8 1021.4 1021.4 0.0
23/11:30am 24.8 22.7 9.9 39 8.2 NNW 11 19 6 10 1022.2 1022.2 0.0
23/11:00am 24.4 23.4 11.0 43 7.5 SSE 7 17 4 9 1022.7 1022.7 0.0
23/10:30am 24.3 23.5 11.6 45 7.2 NNW 7 15 4 8 1023.3 1023.3 0.0
23/10:00am 22.5 20.2 10.6 47 6.5 NNE 13 19 7 10 1023.8 1023.8 0.0
23/09:30am 21.9 20.3 11.6 52 5.8 WNW 11 19 6 10 1024.3 1024.3 0.0
23/09:00am 20.9 19.9 12.3 58 4.8 WNW 9 15 5 8 1024.5 1024.5 0.0
23/08:30am 19.1 18.4 11.9 63 4.0 W 7 11 4 6 1024.8 1024.8 0.0
23/08:00am 17.2 16.7 11.9 71 2.9 NW 6 9 3 5 1025.0 1025.0 0.0
23/07:30am 14.7 15.2 11.5 81 1.7 CALM 0 0 0 0 1025.1 1025.1 0.0
23/07:00am 12.6 12.9 10.8 89 0.9 CALM 0 6 0 3 1025.2 1025.2 0.0
23/06:30am 10.6 10.7 10.1 97 0.3 CALM 0 0 0 0 1025.0 1025.0 0.0
23/06:00am 9.1 8.7 8.3 95 0.4 CALM 0 0 0 0 1024.8 1024.8 0.0
23/05:30am 9.3 9.0 8.5 95 0.4 CALM 0 0 0 0 1024.6 1024.6 0.0
23/05:00am 9.4 8.8 8.8 96 0.3 E 2 7 1 4 1024.4 1024.4 0.0
23/04:30am 9.1 8.3 8.3 95 0.4 E 2 9 1 5 1024.2 1024.2 0.0
23/04:00am 9.8 9.5 8.7 93 0.5 CALM 0 0 0 0 1023.9 1023.9 0.0
23/03:30am 10.1 9.9 9.2 94 0.4 CALM 0 0 0 0 1023.9 1023.9 0.0
23/03:00am 9.7 9.5 9.1 96 0.3 CALM 0 0 0 0 1024.0 1024.0 0.0
23/02:30am 9.9 9.6 8.8 93 0.5 CALM 0 0 0 0 1023.8 1023.8 0.0
23/02:00am 10.6 10.6 9.7 94 0.5 CALM 0 0 0 0 1024.1 1024.1 0.0
23/01:30am 10.3 10.1 8.9 91 0.7 CALM 0 0 0 0 1024.5 1024.5 0.0
23/01:00am 11.0 11.0 9.9 93 0.6 CALM 0 0 0 0 1024.9 1024.9 0.0
23/12:30am 11.4 11.5 10.1 92 0.7 CALM 0 0 0 0 1025.1 1025.1 0.0
23/12:00am 11.9 11.4 10.8 93 0.6 E 4 7 2 4 1025.4 1025.4 0.0
 
Date/Time
EST
Temp
°C
App
Temp
°C
Dew
Point
°C
Rel
Hum
%
Delta-T
°C
Wind Press
QNH
hPa
Press
MSL
hPa
Rain since
9am
mm
Dir  Spd
km/h
Gust
km/h
Spd
kts
Gust
kts
22/11:30pm 12.5 11.7 10.9 90 0.8 E 6 7 3 4 1025.3 1025.3 0.0
22/11:00pm 12.9 11.9 10.4 85 1.3 E 6 7 3 4 1025.4 1025.4 0.0
22/10:30pm 12.9 11.7 10.4 85 1.3 E 7 9 4 5 1025.6 1025.6 0.0
22/10:00pm 14.4 12.7 10.0 75 2.3 E 9 9 5 5 1025.5 1025.5 0.0
22/09:30pm 16.3 16.8 11.7 74 2.5 CALM 0 0 0 0 1025.6 1025.6 0.0
22/09:00pm 16.8 15.9 11.3 70 3.0 E 7 11 4 6 1025.5 1025.5 0.0
22/08:30pm 18.0 16.1 11.8 67 3.4 E 13 17 7 9 1025.4 1025.4 0.0
22/08:00pm 18.4 16.1 11.9 66 3.6 E 15 20 8 11 1025.2 1025.2 0.0
22/07:30pm 18.9 16.4 12.2 65 3.7 ENE 17 20 9 11 1024.9 1024.9 0.0
22/07:00pm 19.3 16.1 11.8 62 4.1 ENE 20 28 11 15 1024.6 1024.6 0.0
22/06:30pm 19.8 15.4 11.8 60 4.4 ENE 26 35 14 19 1024.1 1024.1 0.0
22/06:00pm 20.3 15.7 11.2 56 5.0 ENE 26 33 14 18 1023.7 1023.7 0.0
22/05:30pm 21.3 16.6 10.8 51 5.8 ENE 26 35 14 19 1023.3 1023.3 0.0
22/05:00pm 22.4 17.6 10.2 46 6.6 NE 26 37 14 20 1022.9 1022.9 0.0
22/04:30pm 23.7 18.4 10.0 42 7.5 ENE 28 35 15 19 1022.5 1022.5 0.0
22/04:00pm 25.1 21.2 9.4 37 8.5 NE 20 35 11 19 1022.1 1022.1 0.0
22/03:30pm 25.5 22.8 8.9 35 9.0 NE 13 20 7 11 1022.1 1022.1 0.0
22/03:00pm 25.2 21.1 8.7 35 8.9 ENE 20 32 11 17 1022.3 1022.3 0.0
22/02:30pm 26.0 22.9 8.9 34 9.3 NE 15 24 8 13 1022.6 1022.6 0.0
22/02:00pm 26.2 24.1 8.2 32 9.6 NNW 9 20 5 11 1023.1 1023.1 0.0
22/01:30pm 26.3 22.9 9.2 34 9.4 NE 17 30 9 16 1023.5 1023.5 0.0
22/01:00pm 25.7 22.4 8.2 33 9.4 N 15 24 8 13 1024.1 1024.1 0.0
22/12:30pm 25.1 22.6 8.1 34 9.1 SSE 11 19 6 10 1024.4 1024.4 0.0
22/12:00pm 24.2 21.5 9.0 38 8.2 E 13 26 7 14 1025.0 1025.0 0.0
22/11:30am 23.7 21.9 9.3 40 7.8 SSE 9 19 5 10 1025.8 1025.8 0.0
22/11:00am 23.6 21.2 9.9 42 7.5 ENE 13 22 7 12 1026.4 1026.4 0.0
22/10:30am 23.2 20.3 9.6 42 7.4 NE 15 22 8 12 1026.9 1026.9 0.0
22/10:00am 22.6 19.7 9.7 44 6.9 E 15 20 8 11 1027.4 1027.4 0.0
22/09:30am 22.0 20.9 10.5 48 6.3 SE 7 13 4 7 1027.7 1027.7 0.0
22/09:00am 20.6 19.5 10.7 53 5.4 NNE 7 13 4 7 1027.8 1027.8 0.0
22/08:30am 19.1 18.6 10.9 59 4.5 S 4 9 2 5 1027.9 1027.9 0.0
22/08:00am 16.9 15.7 10.3 65 3.5 S 7 11 4 6 1028.0 1028.0 0.0
22/07:30am 14.8 13.4 9.6 71 2.7 SSW 7 11 4 6 1028.0 1028.0 0.0
22/07:00am 12.9 11.9 9.0 77 2.0 W 4 9 2 5 1027.7 1027.7 0.0
22/06:30am 10.5 9.1 9.6 94 0.5 NW 7 7 4 4 1027.7 1027.7 0.0
22/06:00am 7.9 6.1 7.1 95 0.4 NW 6 9 3 5 1027.2 1027.2 0.0
22/05:30am 7.3 6.4 5.9 91 0.6 CALM 0 0 0 0 1026.9 1026.9 0.0
22/05:00am 6.8 4.1 5.4 91 0.6 NW 9 9 5 5 1026.6 1026.6 0.0
22/04:30am 8.1 7.5 7.2 94 0.4 CALM 0 0 0 0 1026.3 1026.3 0.0
22/04:00am 8.2 7.5 7.0 92 0.6 CALM 0 0 0 0 1026.2 1026.2 0.0
22/03:30am 8.1 7.3 6.4 89 0.8 CALM 0 0 0 0 1026.4 1026.4 0.0
22/03:00am 8.5 7.8 7.1 91 0.7 CALM 0 0 0 0 1026.2 1026.2 0.0
22/02:30am 8.5 7.8 6.8 89 0.8 CALM 0 0 0 0 1026.2 1026.2 0.0
22/02:00am 8.3 7.6 6.8 90 0.7 CALM 0 0 0 0 1026.5 1026.5 0.0
22/01:30am 7.8 5.7 6.6 92 0.6 WNW 7 9 4 5 1026.7 1026.7 0.0
22/01:00am 7.8 5.6 6.4 91 0.6 WSW 7 9 4 5 1026.9 1026.9 0.0
22/12:30am 8.5 7.1 5.6 82 1.3 SW 2 6 1 3 1027.0 1027.0 0.0
22/12:00am 8.5 7.6 6.0 84 1.1 CALM 0 0 0 0 1027.2 1027.2 0.0
 
Date/Time
EST
Temp
°C
App
Temp
°C
Dew
Point
°C
Rel
Hum
%
Delta-T
°C
Wind Press
QNH
hPa
Press
MSL
hPa
Rain since
9am
mm
Dir  Spd
km/h
Gust
km/h
Spd
kts
Gust
kts
21/11:30pm 10.4 9.8 7.6 83 1.3 CALM 0 0 0 0 1027.5 1027.5 0.0
21/11:00pm 10.3 8.6 7.7 84 1.2 SSW 6 9 3 5 1027.4 1027.4 0.0
21/10:30pm 12.3 11.8 8.0 75 2.1 CALM 0 0 0 0 1027.3 1027.3 0.0
21/10:00pm 12.4 10.6 7.1 70 2.5 SSW 6 7 3 4 1027.3 1027.3 0.0
21/09:30pm 14.3 12.6 8.3 67 3.0 SSW 7 9 4 5 1027.1 1027.1 0.0
21/09:00pm 14.0 12.0 7.3 64 3.3 ESE 7 11 4 6 1026.9 1026.9 0.0
21/08:30pm 15.6 13.4 7.9 60 3.9 E 9 13 5 7 1026.5 1026.5 0.0
21/08:00pm 16.9 14.1 8.6 58 4.2 ENE 13 13 7 7 1026.3 1026.3 0.0
21/07:30pm 17.7 15.0 9.1 57 4.5 ENE 13 17 7 9 1025.9 1025.9 0.0
21/07:00pm 18.2 14.8 9.0 55 4.8 ENE 17 22 9 12 1025.2 1025.2 0.0
21/06:30pm 18.9 15.0 8.8 52 5.3 ENE 19 28 10 15 1024.8 1024.8 0.0
21/06:00pm 19.6 15.2 8.9 50 5.6 ENE 22 32 12 17 1024.3 1024.3 0.0
21/05:30pm 20.3 15.7 8.0 45 6.4 ENE 22 30 12 16 1023.7 1023.7 0.0
21/05:00pm 21.4 16.5 8.3 43 6.8 E 24 30 13 16 1023.4 1023.4 0.0
21/04:30pm 22.2 16.4 8.0 40 7.4 ENE 28 33 15 18 1022.8 1022.8 0.0
21/04:00pm 23.3 18.1 7.4 36 8.3 NE 24 32 13 17 1022.5 1022.5 0.0
21/03:30pm 23.4 17.0 7.1 35 8.5 ENE 30 37 16 20 1022.2 1022.2 0.0
21/03:23pm 23.6 17.5 6.8 34 8.7 ENE 28 37 15 20 1022.2 1022.2 0.0
21/03:00pm 24.2 21.3 4.6 28 9.7 SE 9 15 5 8 1022.0 1022.0 0.0
21/02:30pm 23.7 20.8 4.6 29 9.5 SE 9 15 5 8 1022.0 1022.0 0.0
21/02:00pm 24.7 21.1 5.0 28 9.9 SSW 13 24 7 13 1022.2 1022.2 0.0
21/01:30pm 24.2 21.6 6.0 31 9.3 N 9 17 5 9 1022.7 1022.7 0.0
21/01:00pm 24.6 22.0 5.9 30 9.5 ENE 9 15 5 8 1023.0 1023.0 0.0
21/12:30pm 22.8 20.1 5.7 33 8.6 SSE 9 17 5 9 1023.4 1023.4 0.0
21/12:00pm 23.3 19.9 6.1 33 8.7 SE 13 26 7 14 1023.8 1023.8 0.0
21/11:30am 22.7 19.0 6.5 35 8.3 SSW 15 24 8 13 1024.4 1024.4 0.0
21/11:00am 22.6 18.8 6.0 34 8.4 SSE 15 26 8 14 1024.8 1024.8 0.0
21/10:30am 22.7 19.2 7.3 37 8.0 SE 15 26 8 14 1025.1 1025.1 0.0
21/10:00am 22.0 18.4 8.2 41 7.2 SSE 17 26 9 14 1025.3 1025.3 0.0
21/09:30am 20.5 17.1 7.5 43 6.7 SSW 15 28 8 15 1025.5 1025.5 0.0
21/09:00am 19.7 16.2 7.4 45 6.2 SSE 15 28 8 15 1025.5 1025.5 0.0
21/08:30am 19.2 15.0 7.6 47 5.9 S 19 30 10 16 1025.3 1025.3 0.0
21/08:00am 18.2 13.5 7.9 51 5.2 S 22 32 12 17 1025.1 1025.1 0.0
21/07:30am 16.8 12.7 8.0 56 4.5 S 19 28 10 15 1024.9 1024.9 0.0
21/07:00am 15.3 12.4 8.1 62 3.6 SSW 13 19 7 10 1024.4 1024.4 0.0
21/06:30am 13.0 11.2 7.2 68 2.8 SSW 6 7 3 4 1024.2 1024.2 0.0
21/06:00am 11.3 8.6 7.2 76 2.0 SSW 11 13 6 7 1023.6 1023.6 0.0
21/05:30am 11.4 8.2 6.9 74 2.1 SW 13 15 7 8 1023.2 1023.2 0.0
21/05:00am 11.9 10.1 7.0 72 2.3 SSW 6 9 3 5 1022.9 1022.9 0.0
21/04:30am 11.8 8.9 6.7 71 2.4 SW 11 15 6 8 1022.3 1022.3 0.0
21/04:00am 12.4 8.9 7.3 71 2.5 SW 15 17 8 9 1022.1 1022.1 0.0
21/03:30am 12.7 9.6 7.4 70 2.6 SW 13 15 7 8 1021.7 1021.7 0.0
21/03:00am 13.1 10.5 7.8 70 2.6 SSW 11 13 6 7 1021.5 1021.5 0.0
21/02:30am 13.2 12.6 7.6 69 2.7 CALM 0 0 0 0 1021.6 1021.6 0.0
21/02:00am 13.7 10.7 7.5 66 3.0 SSW 13 15 7 8 1021.6 1021.6 0.0
21/01:30am 14.5 11.1 7.5 63 3.5 SSW 15 19 8 10 1021.5 1021.5 0.0
21/01:00am 15.0 11.4 8.3 64 3.4 SSW 17 22 9 12 1021.6 1021.6 0.0
21/12:30am 15.5 10.3 8.7 64 3.5 S 26 35 14 19 1021.6 1021.6 0.0
21/12:00am 15.6 10.9 9.1 65 3.3 S 24 32 13 17 1021.3 1021.3 0.0
 
Date/Time
EST
Temp
°C
App
Temp
°C
Dew
Point
°C
Rel
Hum
%
Delta-T
°C
Wind Press
QNH
hPa
Press
MSL
hPa
Rain since
9am
mm
Dir  Spd
km/h
Gust
km/h
Spd
kts
Gust
kts
20/11:30pm 14.9 11.1 7.5 61 3.7 SSW 17 20 9 11 1020.8 1020.8 0.0
20/11:00pm 13.4 9.6 1.7 45 5.0 SSW 11 13 6 7 1020.6 1020.6 0.0
20/10:30pm 12.1 7.6 -2.9 35 5.8 S 11 13 6 7 1020.4 1020.4 0.0
20/10:00pm 9.9 5.4 -3.0 40 4.8 WSW 11 15 6 8 1019.8 1019.8 0.0
20/09:30pm 10.0 6.1 -5.1 34 5.4 SW 7 9 4 5 1019.6 1019.6 0.0
20/09:27pm 10.6 6.7 -5.0 33 5.6 SSW 7 9 4 5 1019.6 1019.6 0.0
20/09:00pm 15.8 11.8 -5.3 23 8.0 S 7 9 4 5 1019.4 1019.4 0.0
20/08:30pm 17.9 13.5 -6.0 19 9.1 SE 9 11 5 6 1018.9 1018.9 0.0
20/08:00pm 18.4 14.3 -6.3 18 9.4 SE 7 9 4 5 1018.0 1018.0 0.0
20/07:30pm 20.3 14.3 -6.3 16 10.4 SW 17 26 9 14 1017.3 1017.3 0.0
20/07:00pm 21.2 14.7 -6.4 15 10.8 WSW 20 28 11 15 1016.5 1016.5 0.0
20/06:30pm 22.1 15.5 -6.6 14 11.3 WSW 20 28 11 15 1015.7 1015.7 0.0
20/06:00pm 23.0 16.0 -6.9 13 11.8 W 22 30 12 16 1015.0 1014.9 0.0
20/05:30pm 24.6 16.8 -7.8 11 12.8 W 26 37 14 20 1014.2 1014.1 0.0
20/05:00pm 25.9 17.8 -6.8 11 13.4 W 28 37 15 20 1013.5 1013.4 0.0
20/04:30pm 26.9 18.9 -6.0 11 13.8 WSW 28 39 15 21 1012.7 1012.6 0.0

Latest Capital City Observations: Canberra | Sydney | Melbourne | Brisbane | Adelaide | Perth | Hobart | Darwin

Other Formats:

Comma delimited format used in spreadsheet applications
http://www.bom.gov.au/fwo/IDQ60901/IDQ60901.94568.axf

JavaScript Object Notation format (JSON) in row-major order
http://www.bom.gov.au/fwo/IDQ60901/IDQ60901.94568.json